sensor_id;sensor_type;location;lat;lon;timestamp;P1;durP1;ratioP1;P2;durP2;ratioP2
75486;SDS011;64068;44.762;21.514;2022-10-16T00:01:18;8.88;;;5.47;;
75486;SDS011;64068;44.762;21.514;2022-10-16T00:03:45;9.05;;;5.50;;
75486;SDS011;64068;44.762;21.514;2022-10-16T00:06:12;10.70;;;5.47;;
75486;SDS011;64068;44.762;21.514;2022-10-16T00:08:39;8.13;;;5.28;;
75486;SDS011;64068;44.762;21.514;2022-10-16T00:11:06;10.38;;;5.00;;
75486;SDS011;64068;44.762;21.514;2022-10-16T00:13:33;8.05;;;5.43;;
75486;SDS011;64068;44.762;21.514;2022-10-16T00:16:00;10.00;;;5.10;;
75486;SDS011;64068;44.762;21.514;2022-10-16T00:18:27;7.80;;;5.22;;
75486;SDS011;64068;44.762;21.514;2022-10-16T00:20:53;10.75;;;5.60;;
75486;SDS011;64068;44.762;21.514;2022-10-16T00:23:20;13.68;;;5.80;;
75486;SDS011;64068;44.762;21.514;2022-10-16T00:25:59;10.48;;;5.45;;
75486;SDS011;64068;44.762;21.514;2022-10-16T00:28:26;12.13;;;6.30;;
75486;SDS011;64068;44.762;21.514;2022-10-16T00:30:52;9.55;;;5.38;;
75486;SDS011;64068;44.762;21.514;2022-10-16T00:33:19;8.85;;;5.60;;
75486;SDS011;64068;44.762;21.514;2022-10-16T00:35:45;20.50;;;6.32;;
75486;SDS011;64068;44.762;21.514;2022-10-16T00:38:11;8.98;;;5.65;;
75486;SDS011;64068;44.762;21.514;2022-10-16T00:40:38;12.63;;;5.95;;
75486;SDS011;64068;44.762;21.514;2022-10-16T00:43:14;11.25;;;6.15;;
75486;SDS011;64068;44.762;21.514;2022-10-16T00:45:40;9.38;;;5.88;;
75486;SDS011;64068;44.762;21.514;2022-10-16T00:48:08;6.90;;;4.85;;
75486;SDS011;64068;44.762;21.514;2022-10-16T00:50:36;11.55;;;5.43;;
75486;SDS011;64068;44.762;21.514;2022-10-16T00:53:03;9.13;;;4.95;;
75486;SDS011;64068;44.762;21.514;2022-10-16T00:55:30;13.32;;;5.82;;
75486;SDS011;64068;44.762;21.514;2022-10-16T00:57:56;9.93;;;5.95;;
75486;SDS011;64068;44.762;21.514;2022-10-16T01:00:24;7.72;;;6.15;;
75486;SDS011;64068;44.762;21.514;2022-10-16T01:02:58;11.65;;;6.00;;
75486;SDS011;64068;44.762;21.514;2022-10-16T01:05:48;9.38;;;5.78;;
75486;SDS011;64068;44.762;21.514;2022-10-16T01:08:17;10.50;;;5.65;;
75486;SDS011;64068;44.762;21.514;2022-10-16T01:10:57;7.63;;;5.10;;
75486;SDS011;64068;44.762;21.514;2022-10-16T01:13:30;11.17;;;5.63;;
75486;SDS011;64068;44.762;21.514;2022-10-16T01:16:05;9.55;;;4.97;;
75486;SDS011;64068;44.762;21.514;2022-10-16T01:18:41;9.13;;;5.40;;
75486;SDS011;64068;44.762;21.514;2022-10-16T01:21:10;10.75;;;5.07;;
75486;SDS011;64068;44.762;21.514;2022-10-16T01:28:57;9.25;;;5.25;;
75486;SDS011;64068;44.762;21.514;2022-10-16T01:31:26;8.10;;;5.10;;
75486;SDS011;64068;44.762;21.514;2022-10-16T01:33:56;13.70;;;5.50;;
75486;SDS011;64068;44.762;21.514;2022-10-16T01:36:25;10.65;;;5.57;;
75486;SDS011;64068;44.762;21.514;2022-10-16T01:38:52;6.30;;;4.57;;
75486;SDS011;64068;44.762;21.514;2022-10-16T01:43:48;9.60;;;5.35;;
75486;SDS011;64068;44.762;21.514;2022-10-16T01:46:16;11.00;;;5.53;;
75486;SDS011;64068;44.762;21.514;2022-10-16T01:48:43;10.43;;;5.40;;
75486;SDS011;64068;44.762;21.514;2022-10-16T01:51:10;10.75;;;5.72;;
75486;SDS011;64068;44.762;21.514;2022-10-16T01:53:37;9.85;;;5.03;;
75486;SDS011;64068;44.762;21.514;2022-10-16T01:56:06;8.90;;;5.05;;
75486;SDS011;64068;44.762;21.514;2022-10-16T01:58:34;8.27;;;5.78;;
75486;SDS011;64068;44.762;21.514;2022-10-16T02:01:01;14.13;;;5.70;;
75486;SDS011;64068;44.762;21.514;2022-10-16T02:03:28;6.85;;;5.40;;
75486;SDS011;64068;44.762;21.514;2022-10-16T02:05:55;9.10;;;5.30;;
75486;SDS011;64068;44.762;21.514;2022-10-16T02:08:23;8.48;;;4.97;;
75486;SDS011;64068;44.762;21.514;2022-10-16T02:10:51;9.20;;;5.57;;
75486;SDS011;64068;44.762;21.514;2022-10-16T02:13:37;9.70;;;5.82;;
75486;SDS011;64068;44.762;21.514;2022-10-16T02:16:04;10.45;;;6.03;;
75486;SDS011;64068;44.762;21.514;2022-10-16T02:18:31;8.45;;;5.80;;
75486;SDS011;64068;44.762;21.514;2022-10-16T02:20:58;12.80;;;6.25;;
75486;SDS011;64068;44.762;21.514;2022-10-16T02:23:30;15.65;;;5.97;;
75486;SDS011;64068;44.762;21.514;2022-10-16T02:26:00;7.15;;;5.20;;
75486;SDS011;64068;44.762;21.514;2022-10-16T02:28:31;9.75;;;6.20;;
75486;SDS011;64068;44.762;21.514;2022-10-16T02:31:00;9.02;;;5.72;;
75486;SDS011;64068;44.762;21.514;2022-10-16T02:33:27;9.82;;;5.72;;
75486;SDS011;64068;44.762;21.514;2022-10-16T02:35:53;11.85;;;5.82;;
75486;SDS011;64068;44.762;21.514;2022-10-16T02:38:20;10.95;;;6.07;;
75486;SDS011;64068;44.762;21.514;2022-10-16T02:40:47;8.13;;;5.93;;
75486;SDS011;64068;44.762;21.514;2022-10-16T02:43:13;8.77;;;5.88;;
75486;SDS011;64068;44.762;21.514;2022-10-16T02:45:39;7.57;;;6.25;;
75486;SDS011;64068;44.762;21.514;2022-10-16T02:48:06;9.07;;;5.95;;
75486;SDS011;64068;44.762;21.514;2022-10-16T02:50:32;8.18;;;5.55;;
75486;SDS011;64068;44.762;21.514;2022-10-16T02:52:58;12.40;;;6.40;;
75486;SDS011;64068;44.762;21.514;2022-10-16T02:55:24;12.57;;;5.97;;
75486;SDS011;64068;44.762;21.514;2022-10-16T02:57:51;10.77;;;6.13;;
75486;SDS011;64068;44.762;21.514;2022-10-16T03:00:17;8.65;;;5.93;;
75486;SDS011;64068;44.762;21.514;2022-10-16T03:02:43;11.93;;;6.22;;
75486;SDS011;64068;44.762;21.514;2022-10-16T03:05:10;9.20;;;5.43;;
75486;SDS011;64068;44.762;21.514;2022-10-16T03:07:36;11.45;;;6.05;;
75486;SDS011;64068;44.762;21.514;2022-10-16T03:10:02;12.55;;;6.55;;
75486;SDS011;64068;44.762;21.514;2022-10-16T03:12:29;10.38;;;6.22;;
75486;SDS011;64068;44.762;21.514;2022-10-16T03:14:56;11.43;;;5.95;;
75486;SDS011;64068;44.762;21.514;2022-10-16T03:17:22;8.15;;;6.50;;
75486;SDS011;64068;44.762;21.514;2022-10-16T03:19:48;9.48;;;6.03;;
75486;SDS011;64068;44.762;21.514;2022-10-16T03:22:15;12.38;;;6.55;;
75486;SDS011;64068;44.762;21.514;2022-10-16T03:24:41;14.00;;;6.57;;
75486;SDS011;64068;44.762;21.514;2022-10-16T03:27:07;10.27;;;6.65;;
75486;SDS011;64068;44.762;21.514;2022-10-16T03:29:33;10.20;;;6.63;;
75486;SDS011;64068;44.762;21.514;2022-10-16T03:32:00;9.27;;;6.07;;
75486;SDS011;64068;44.762;21.514;2022-10-16T03:34:26;12.32;;;6.88;;
75486;SDS011;64068;44.762;21.514;2022-10-16T03:36:53;11.55;;;6.50;;
75486;SDS011;64068;44.762;21.514;2022-10-16T03:39:19;16.65;;;6.43;;
75486;SDS011;64068;44.762;21.514;2022-10-16T03:41:45;8.60;;;5.85;;
75486;SDS011;64068;44.762;21.514;2022-10-16T03:44:11;9.35;;;6.05;;
75486;SDS011;64068;44.762;21.514;2022-10-16T03:46:38;12.07;;;7.25;;
75486;SDS011;64068;44.762;21.514;2022-10-16T03:49:04;10.00;;;6.90;;
75486;SDS011;64068;44.762;21.514;2022-10-16T03:51:30;10.93;;;7.03;;
75486;SDS011;64068;44.762;21.514;2022-10-16T03:53:56;12.05;;;6.90;;
75486;SDS011;64068;44.762;21.514;2022-10-16T03:56:22;12.23;;;7.20;;
75486;SDS011;64068;44.762;21.514;2022-10-16T03:58:48;9.40;;;6.40;;
75486;SDS011;64068;44.762;21.514;2022-10-16T04:01:15;11.48;;;6.05;;
75486;SDS011;64068;44.762;21.514;2022-10-16T04:03:41;10.05;;;6.60;;
75486;SDS011;64068;44.762;21.514;2022-10-16T04:06:07;14.05;;;6.22;;
75486;SDS011;64068;44.762;21.514;2022-10-16T04:08:34;11.30;;;6.50;;
75486;SDS011;64068;44.762;21.514;2022-10-16T04:11:02;8.32;;;5.80;;
75486;SDS011;64068;44.762;21.514;2022-10-16T04:13:28;11.77;;;6.40;;
75486;SDS011;64068;44.762;21.514;2022-10-16T04:15:54;11.77;;;6.80;;
75486;SDS011;64068;44.762;21.514;2022-10-16T04:18:21;10.35;;;6.38;;
75486;SDS011;64068;44.762;21.514;2022-10-16T04:20:47;8.20;;;5.50;;
75486;SDS011;64068;44.762;21.514;2022-10-16T04:23:13;9.13;;;5.68;;
75486;SDS011;64068;44.762;21.514;2022-10-16T04:25:39;8.32;;;5.82;;
75486;SDS011;64068;44.762;21.514;2022-10-16T04:28:05;9.10;;;6.07;;
75486;SDS011;64068;44.762;21.514;2022-10-16T04:30:31;8.45;;;5.85;;
75486;SDS011;64068;44.762;21.514;2022-10-16T04:32:58;9.38;;;5.80;;
75486;SDS011;64068;44.762;21.514;2022-10-16T04:35:25;11.95;;;6.07;;
75486;SDS011;64068;44.762;21.514;2022-10-16T04:37:51;9.57;;;5.03;;
75486;SDS011;64068;44.762;21.514;2022-10-16T04:40:17;7.75;;;5.70;;
75486;SDS011;64068;44.762;21.514;2022-10-16T04:42:43;13.60;;;6.28;;
75486;SDS011;64068;44.762;21.514;2022-10-16T04:45:09;9.18;;;5.70;;
75486;SDS011;64068;44.762;21.514;2022-10-16T04:47:36;13.80;;;5.60;;
75486;SDS011;64068;44.762;21.514;2022-10-16T04:50:02;10.98;;;5.95;;
75486;SDS011;64068;44.762;21.514;2022-10-16T04:52:28;11.10;;;5.70;;
75486;SDS011;64068;44.762;21.514;2022-10-16T04:54:56;11.88;;;6.22;;
75486;SDS011;64068;44.762;21.514;2022-10-16T04:57:26;9.30;;;6.75;;
75486;SDS011;64068;44.762;21.514;2022-10-16T04:59:52;14.43;;;6.05;;
75486;SDS011;64068;44.762;21.514;2022-10-16T05:02:18;9.45;;;5.90;;
75486;SDS011;64068;44.762;21.514;2022-10-16T05:04:44;11.95;;;6.18;;
75486;SDS011;64068;44.762;21.514;2022-10-16T05:07:10;11.63;;;7.55;;
75486;SDS011;64068;44.762;21.514;2022-10-16T05:09:37;10.15;;;7.50;;
75486;SDS011;64068;44.762;21.514;2022-10-16T05:12:03;21.52;;;7.63;;
75486;SDS011;64068;44.762;21.514;2022-10-16T05:14:29;14.18;;;7.95;;
75486;SDS011;64068;44.762;21.514;2022-10-16T05:16:56;15.82;;;7.78;;
75486;SDS011;64068;44.762;21.514;2022-10-16T05:19:22;12.30;;;7.50;;
75486;SDS011;64068;44.762;21.514;2022-10-16T05:21:48;14.38;;;8.15;;
75486;SDS011;64068;44.762;21.514;2022-10-16T05:24:14;12.18;;;7.25;;
75486;SDS011;64068;44.762;21.514;2022-10-16T05:26:41;15.20;;;7.53;;
75486;SDS011;64068;44.762;21.514;2022-10-16T05:29:07;10.90;;;7.50;;
75486;SDS011;64068;44.762;21.514;2022-10-16T05:31:33;13.05;;;7.80;;
75486;SDS011;64068;44.762;21.514;2022-10-16T05:33:59;16.67;;;8.45;;
75486;SDS011;64068;44.762;21.514;2022-10-16T05:36:26;17.92;;;8.00;;
75486;SDS011;64068;44.762;21.514;2022-10-16T05:38:52;11.77;;;8.60;;
75486;SDS011;64068;44.762;21.514;2022-10-16T05:41:18;10.02;;;7.32;;
75486;SDS011;64068;44.762;21.514;2022-10-16T05:43:50;13.57;;;7.63;;
75486;SDS011;64068;44.762;21.514;2022-10-16T05:46:16;14.57;;;9.00;;
75486;SDS011;64068;44.762;21.514;2022-10-16T05:48:43;14.43;;;8.13;;
75486;SDS011;64068;44.762;21.514;2022-10-16T05:51:10;11.48;;;7.78;;
75486;SDS011;64068;44.762;21.514;2022-10-16T05:53:37;9.82;;;7.18;;
75486;SDS011;64068;44.762;21.514;2022-10-16T05:56:03;11.80;;;8.35;;
75486;SDS011;64068;44.762;21.514;2022-10-16T05:58:31;10.30;;;6.40;;
75486;SDS011;64068;44.762;21.514;2022-10-16T06:00:59;14.07;;;6.93;;
75486;SDS011;64068;44.762;21.514;2022-10-16T06:03:26;12.23;;;6.60;;
75486;SDS011;64068;44.762;21.514;2022-10-16T06:05:52;13.02;;;8.23;;
75486;SDS011;64068;44.762;21.514;2022-10-16T06:08:20;13.77;;;6.28;;
75486;SDS011;64068;44.762;21.514;2022-10-16T06:10:47;14.00;;;5.93;;
75486;SDS011;64068;44.762;21.514;2022-10-16T06:13:13;10.85;;;6.07;;
75486;SDS011;64068;44.762;21.514;2022-10-16T06:15:39;12.10;;;8.30;;
75486;SDS011;64068;44.762;21.514;2022-10-16T06:18:07;14.38;;;9.38;;
75486;SDS011;64068;44.762;21.514;2022-10-16T06:20:33;13.15;;;9.27;;
75486;SDS011;64068;44.762;21.514;2022-10-16T06:22:59;15.77;;;7.82;;
75486;SDS011;64068;44.762;21.514;2022-10-16T06:25:25;15.20;;;6.60;;
75486;SDS011;64068;44.762;21.514;2022-10-16T06:27:51;7.70;;;5.07;;
75486;SDS011;64068;44.762;21.514;2022-10-16T06:30:18;18.13;;;6.85;;
75486;SDS011;64068;44.762;21.514;2022-10-16T06:32:44;21.45;;;9.23;;
75486;SDS011;64068;44.762;21.514;2022-10-16T06:35:10;13.80;;;6.25;;
75486;SDS011;64068;44.762;21.514;2022-10-16T06:37:36;10.13;;;5.35;;
75486;SDS011;64068;44.762;21.514;2022-10-16T06:40:03;6.75;;;4.72;;
75486;SDS011;64068;44.762;21.514;2022-10-16T06:42:29;7.97;;;4.97;;
75486;SDS011;64068;44.762;21.514;2022-10-16T06:44:55;8.07;;;4.55;;
75486;SDS011;64068;44.762;21.514;2022-10-16T06:47:22;7.55;;;4.55;;
75486;SDS011;64068;44.762;21.514;2022-10-16T06:49:48;7.68;;;5.68;;
75486;SDS011;64068;44.762;21.514;2022-10-16T06:52:14;7.45;;;4.93;;
75486;SDS011;64068;44.762;21.514;2022-10-16T06:54:41;9.10;;;4.88;;
75486;SDS011;64068;44.762;21.514;2022-10-16T06:57:07;9.38;;;5.50;;
75486;SDS011;64068;44.762;21.514;2022-10-16T06:59:33;7.00;;;4.53;;
75486;SDS011;64068;44.762;21.514;2022-10-16T07:01:59;7.80;;;4.72;;
75486;SDS011;64068;44.762;21.514;2022-10-16T07:04:25;10.10;;;5.80;;
75486;SDS011;64068;44.762;21.514;2022-10-16T07:06:51;9.32;;;4.70;;
75486;SDS011;64068;44.762;21.514;2022-10-16T07:09:18;9.70;;;5.35;;
75486;SDS011;64068;44.762;21.514;2022-10-16T07:11:44;10.45;;;4.40;;
75486;SDS011;64068;44.762;21.514;2022-10-16T07:14:14;8.02;;;3.90;;
75486;SDS011;64068;44.762;21.514;2022-10-16T07:16:41;7.70;;;5.05;;
75486;SDS011;64068;44.762;21.514;2022-10-16T07:19:07;6.65;;;4.10;;
75486;SDS011;64068;44.762;21.514;2022-10-16T07:21:34;7.47;;;4.55;;
75486;SDS011;64068;44.762;21.514;2022-10-16T07:24:00;8.43;;;4.53;;
75486;SDS011;64068;44.762;21.514;2022-10-16T07:26:27;6.85;;;4.45;;
75486;SDS011;64068;44.762;21.514;2022-10-16T07:28:55;7.03;;;4.65;;
75486;SDS011;64068;44.762;21.514;2022-10-16T07:31:22;9.38;;;4.85;;
75486;SDS011;64068;44.762;21.514;2022-10-16T07:33:49;6.65;;;4.68;;
75486;SDS011;64068;44.762;21.514;2022-10-16T07:36:15;6.22;;;3.92;;
75486;SDS011;64068;44.762;21.514;2022-10-16T07:38:42;6.50;;;3.97;;
75486;SDS011;64068;44.762;21.514;2022-10-16T07:41:10;6.97;;;3.92;;
75486;SDS011;64068;44.762;21.514;2022-10-16T07:43:37;6.80;;;4.13;;
75486;SDS011;64068;44.762;21.514;2022-10-16T07:46:03;9.85;;;4.22;;
75486;SDS011;64068;44.762;21.514;2022-10-16T07:48:31;7.38;;;4.00;;
75486;SDS011;64068;44.762;21.514;2022-10-16T07:51:01;8.63;;;4.30;;
75486;SDS011;64068;44.762;21.514;2022-10-16T07:53:28;9.13;;;4.05;;
75486;SDS011;64068;44.762;21.514;2022-10-16T07:56:01;7.97;;;4.32;;
75486;SDS011;64068;44.762;21.514;2022-10-16T07:58:28;7.88;;;4.05;;
75486;SDS011;64068;44.762;21.514;2022-10-16T08:00:54;11.02;;;4.85;;
75486;SDS011;64068;44.762;21.514;2022-10-16T08:03:21;8.40;;;4.00;;
75486;SDS011;64068;44.762;21.514;2022-10-16T08:05:47;7.63;;;4.32;;
75486;SDS011;64068;44.762;21.514;2022-10-16T08:08:14;10.55;;;4.20;;
75486;SDS011;64068;44.762;21.514;2022-10-16T08:10:40;8.38;;;4.15;;
75486;SDS011;64068;44.762;21.514;2022-10-16T08:13:07;8.45;;;4.63;;
75486;SDS011;64068;44.762;21.514;2022-10-16T08:15:33;11.75;;;4.55;;
75486;SDS011;64068;44.762;21.514;2022-10-16T08:18:00;8.43;;;4.10;;
75486;SDS011;64068;44.762;21.514;2022-10-16T08:20:27;9.27;;;4.75;;
75486;SDS011;64068;44.762;21.514;2022-10-16T08:22:53;7.13;;;4.15;;
75486;SDS011;64068;44.762;21.514;2022-10-16T08:25:20;7.80;;;5.03;;
75486;SDS011;64068;44.762;21.514;2022-10-16T08:27:46;9.13;;;4.90;;
75486;SDS011;64068;44.762;21.514;2022-10-16T08:30:13;9.25;;;3.97;;
75486;SDS011;64068;44.762;21.514;2022-10-16T08:32:39;8.80;;;5.13;;
75486;SDS011;64068;44.762;21.514;2022-10-16T08:35:09;7.57;;;4.60;;
75486;SDS011;64068;44.762;21.514;2022-10-16T08:37:36;10.10;;;4.75;;
75486;SDS011;64068;44.762;21.514;2022-10-16T08:40:02;7.38;;;4.18;;
75486;SDS011;64068;44.762;21.514;2022-10-16T08:50:10;8.70;;;5.10;;
75486;SDS011;64068;44.762;21.514;2022-10-16T08:52:39;9.98;;;6.40;;
75486;SDS011;64068;44.762;21.514;2022-10-16T08:55:08;9.48;;;4.57;;
75486;SDS011;64068;44.762;21.514;2022-10-16T08:57:38;5.78;;;4.28;;
75486;SDS011;64068;44.762;21.514;2022-10-16T09:00:13;4.93;;;4.10;;
75486;SDS011;64068;44.762;21.514;2022-10-16T09:02:52;8.18;;;5.82;;
75486;SDS011;64068;44.762;21.514;2022-10-16T09:05:33;8.68;;;3.90;;
75486;SDS011;64068;44.762;21.514;2022-10-16T09:13:23;7.97;;;5.40;;
75486;SDS011;64068;44.762;21.514;2022-10-16T09:18:23;10.65;;;5.70;;
75486;SDS011;64068;44.762;21.514;2022-10-16T09:23:30;10.02;;;5.50;;
75486;SDS011;64068;44.762;21.514;2022-10-16T09:25:57;15.90;;;11.55;;
75486;SDS011;64068;44.762;21.514;2022-10-16T09:28:24;8.50;;;5.90;;
75486;SDS011;64068;44.762;21.514;2022-10-16T09:30:50;8.73;;;4.53;;
75486;SDS011;64068;44.762;21.514;2022-10-16T09:33:18;6.18;;;4.00;;
75486;SDS011;64068;44.762;21.514;2022-10-16T09:35:45;5.85;;;5.10;;
75486;SDS011;64068;44.762;21.514;2022-10-16T09:38:23;6.32;;;4.07;;
75486;SDS011;64068;44.762;21.514;2022-10-16T09:40:49;9.73;;;4.25;;
75486;SDS011;64068;44.762;21.514;2022-10-16T09:45:56;11.00;;;4.65;;
75486;SDS011;64068;44.762;21.514;2022-10-16T09:48:23;11.80;;;5.50;;
75486;SDS011;64068;44.762;21.514;2022-10-16T09:50:57;10.02;;;5.80;;
75486;SDS011;64068;44.762;21.514;2022-10-16T09:53:25;12.82;;;4.28;;
75486;SDS011;64068;44.762;21.514;2022-10-16T09:55:53;4.82;;;4.00;;
75486;SDS011;64068;44.762;21.514;2022-10-16T09:58:22;7.05;;;3.53;;
75486;SDS011;64068;44.762;21.514;2022-10-16T10:00:50;7.82;;;4.35;;
75486;SDS011;64068;44.762;21.514;2022-10-16T10:03:37;8.38;;;4.50;;
75486;SDS011;64068;44.762;21.514;2022-10-16T10:06:14;7.78;;;4.25;;
75486;SDS011;64068;44.762;21.514;2022-10-16T10:08:52;8.48;;;4.45;;
75486;SDS011;64068;44.762;21.514;2022-10-16T10:11:35;6.47;;;4.97;;
75486;SDS011;64068;44.762;21.514;2022-10-16T10:14:44;9.90;;;6.25;;
75486;SDS011;64068;44.762;21.514;2022-10-16T10:16:52;10.93;;;6.90;;
75486;SDS011;64068;44.762;21.514;2022-10-16T10:19:20;6.55;;;5.22;;
75486;SDS011;64068;44.762;21.514;2022-10-16T10:21:46;7.93;;;5.00;;
75486;SDS011;64068;44.762;21.514;2022-10-16T10:24:16;8.80;;;8.10;;
75486;SDS011;64068;44.762;21.514;2022-10-16T10:27:06;8.55;;;4.55;;
75486;SDS011;64068;44.762;21.514;2022-10-16T10:29:36;13.90;;;5.40;;
75486;SDS011;64068;44.762;21.514;2022-10-16T10:32:09;9.38;;;5.07;;
75486;SDS011;64068;44.762;21.514;2022-10-16T10:34:53;5.97;;;4.93;;
75486;SDS011;64068;44.762;21.514;2022-10-16T10:42:37;7.07;;;4.70;;
75486;SDS011;64068;44.762;21.514;2022-10-16T10:51:04;13.90;;;5.10;;
75486;SDS011;64068;44.762;21.514;2022-10-16T10:59:01;9.65;;;6.13;;
75486;SDS011;64068;44.762;21.514;2022-10-16T11:02:32;8.45;;;6.20;;
75486;SDS011;64068;44.762;21.514;2022-10-16T11:04:39;8.45;;;6.68;;
75486;SDS011;64068;44.762;21.514;2022-10-16T11:07:19;7.93;;;5.18;;
75486;SDS011;64068;44.762;21.514;2022-10-16T11:09:48;6.80;;;5.18;;
75486;SDS011;64068;44.762;21.514;2022-10-16T11:12:22;11.35;;;5.82;;
75486;SDS011;64068;44.762;21.514;2022-10-16T11:17:30;9.02;;;5.03;;
75486;SDS011;64068;44.762;21.514;2022-10-16T11:20:05;6.10;;;5.57;;
75486;SDS011;64068;44.762;21.514;2022-10-16T11:25:18;7.63;;;6.07;;
75486;SDS011;64068;44.762;21.514;2022-10-16T11:30:33;13.50;;;5.68;;
75486;SDS011;64068;44.762;21.514;2022-10-16T11:44:26;9.98;;;5.47;;
75486;SDS011;64068;44.762;21.514;2022-10-16T11:47:45;10.73;;;5.18;;
75486;SDS011;64068;44.762;21.514;2022-10-16T11:49:39;6.18;;;5.53;;
75486;SDS011;64068;44.762;21.514;2022-10-16T11:52:15;6.82;;;5.47;;
75486;SDS011;64068;44.762;21.514;2022-10-16T11:54:45;7.03;;;5.78;;
75486;SDS011;64068;44.762;21.514;2022-10-16T11:57:16;6.15;;;5.60;;
75486;SDS011;64068;44.762;21.514;2022-10-16T11:59:45;5.00;;;4.60;;
75486;SDS011;64068;44.762;21.514;2022-10-16T12:02:25;6.05;;;5.32;;
75486;SDS011;64068;44.762;21.514;2022-10-16T12:05:40;11.82;;;5.57;;
75486;SDS011;64068;44.762;21.514;2022-10-16T12:07:40;7.03;;;6.10;;
75486;SDS011;64068;44.762;21.514;2022-10-16T12:10:18;5.88;;;5.28;;
75486;SDS011;64068;44.762;21.514;2022-10-16T12:12:45;7.15;;;5.35;;
75486;SDS011;64068;44.762;21.514;2022-10-16T12:15:24;10.48;;;5.22;;
75486;SDS011;64068;44.762;21.514;2022-10-16T12:17:51;6.93;;;5.85;;
75486;SDS011;64068;44.762;21.514;2022-10-16T12:20:19;6.57;;;5.95;;
75486;SDS011;64068;44.762;21.514;2022-10-16T12:27:53;7.60;;;5.93;;
75486;SDS011;64068;44.762;21.514;2022-10-16T12:30:23;5.38;;;4.97;;
75486;SDS011;64068;44.762;21.514;2022-10-16T12:32:56;9.23;;;6.78;;
75486;SDS011;64068;44.762;21.514;2022-10-16T12:35:24;9.32;;;5.97;;
75486;SDS011;64068;44.762;21.514;2022-10-16T12:37:51;6.05;;;5.35;;
75486;SDS011;64068;44.762;21.514;2022-10-16T12:42:53;6.35;;;5.28;;
75486;SDS011;64068;44.762;21.514;2022-10-16T12:47:49;5.28;;;4.75;;
75486;SDS011;64068;44.762;21.514;2022-10-16T12:50:36;8.68;;;5.28;;
75486;SDS011;64068;44.762;21.514;2022-10-16T12:53:04;5.55;;;5.03;;
75486;SDS011;64068;44.762;21.514;2022-10-16T12:56:04;5.70;;;5.05;;
75486;SDS011;64068;44.762;21.514;2022-10-16T13:00:57;8.07;;;7.03;;
75486;SDS011;64068;44.762;21.514;2022-10-16T13:03:48;6.78;;;6.03;;
75486;SDS011;64068;44.762;21.514;2022-10-16T13:09:15;5.78;;;5.22;;
75486;SDS011;64068;44.762;21.514;2022-10-16T13:14:32;7.28;;;5.00;;
75486;SDS011;64068;44.762;21.514;2022-10-16T13:27:21;9.80;;;5.00;;
75486;SDS011;64068;44.762;21.514;2022-10-16T13:29:52;7.40;;;4.22;;
75486;SDS011;64068;44.762;21.514;2022-10-16T13:32:20;7.13;;;4.47;;
75486;SDS011;64068;44.762;21.514;2022-10-16T13:34:48;4.40;;;4.00;;
75486;SDS011;64068;44.762;21.514;2022-10-16T13:37:17;5.95;;;3.47;;
75486;SDS011;64068;44.762;21.514;2022-10-16T13:39:44;4.65;;;3.83;;
75486;SDS011;64068;44.762;21.514;2022-10-16T13:42:24;13.20;;;4.15;;
75486;SDS011;64068;44.762;21.514;2022-10-16T13:44:52;7.05;;;3.70;;
75486;SDS011;64068;44.762;21.514;2022-10-16T13:47:23;7.03;;;3.70;;
75486;SDS011;64068;44.762;21.514;2022-10-16T13:50:06;5.65;;;3.90;;
75486;SDS011;64068;44.762;21.514;2022-10-16T13:52:35;6.53;;;3.67;;
75486;SDS011;64068;44.762;21.514;2022-10-16T13:55:03;6.07;;;3.90;;
75486;SDS011;64068;44.762;21.514;2022-10-16T13:57:30;8.13;;;4.28;;
75486;SDS011;64068;44.762;21.514;2022-10-16T13:59:56;8.75;;;4.30;;
75486;SDS011;64068;44.762;21.514;2022-10-16T14:02:26;5.20;;;4.07;;
75486;SDS011;64068;44.762;21.514;2022-10-16T14:04:55;5.85;;;3.88;;
75486;SDS011;64068;44.762;21.514;2022-10-16T14:07:26;4.93;;;3.72;;
75486;SDS011;64068;44.762;21.514;2022-10-16T14:09:53;7.80;;;3.90;;
75486;SDS011;64068;44.762;21.514;2022-10-16T14:12:20;7.72;;;4.38;;
75486;SDS011;64068;44.762;21.514;2022-10-16T14:14:48;3.95;;;3.65;;
75486;SDS011;64068;44.762;21.514;2022-10-16T14:17:15;5.28;;;3.97;;
75486;SDS011;64068;44.762;21.514;2022-10-16T14:19:45;5.95;;;4.00;;
75486;SDS011;64068;44.762;21.514;2022-10-16T14:22:19;7.82;;;3.83;;
75486;SDS011;64068;44.762;21.514;2022-10-16T14:24:47;9.45;;;4.43;;
75486;SDS011;64068;44.762;21.514;2022-10-16T14:27:28;8.75;;;4.20;;
75486;SDS011;64068;44.762;21.514;2022-10-16T14:32:33;8.00;;;4.63;;
75486;SDS011;64068;44.762;21.514;2022-10-16T14:35:00;5.65;;;4.07;;
75486;SDS011;64068;44.762;21.514;2022-10-16T14:37:27;5.00;;;3.55;;
75486;SDS011;64068;44.762;21.514;2022-10-16T14:39:54;7.28;;;4.25;;
75486;SDS011;64068;44.762;21.514;2022-10-16T14:42:21;11.25;;;4.53;;
75486;SDS011;64068;44.762;21.514;2022-10-16T14:44:51;8.07;;;4.55;;
75486;SDS011;64068;44.762;21.514;2022-10-16T14:47:19;7.32;;;4.47;;
75486;SDS011;64068;44.762;21.514;2022-10-16T14:49:51;6.97;;;4.47;;
75486;SDS011;64068;44.762;21.514;2022-10-16T14:52:20;4.40;;;4.00;;
75486;SDS011;64068;44.762;21.514;2022-10-16T14:54:49;6.00;;;4.55;;
75486;SDS011;64068;44.762;21.514;2022-10-16T14:57:16;10.65;;;5.03;;
75486;SDS011;64068;44.762;21.514;2022-10-16T14:59:43;7.55;;;5.78;;
75486;SDS011;64068;44.762;21.514;2022-10-16T15:02:16;12.73;;;6.03;;
75486;SDS011;64068;44.762;21.514;2022-10-16T15:04:44;11.02;;;4.78;;
75486;SDS011;64068;44.762;21.514;2022-10-16T15:07:10;7.10;;;5.45;;
75486;SDS011;64068;44.762;21.514;2022-10-16T15:09:36;9.70;;;5.60;;
75486;SDS011;64068;44.762;21.514;2022-10-16T15:12:02;8.48;;;4.97;;
75486;SDS011;64068;44.762;21.514;2022-10-16T15:14:29;13.95;;;6.60;;
75486;SDS011;64068;44.762;21.514;2022-10-16T15:16:55;21.38;;;10.68;;
75486;SDS011;64068;44.762;21.514;2022-10-16T15:19:21;27.63;;;14.55;;
75486;SDS011;64068;44.762;21.514;2022-10-16T15:21:47;20.52;;;11.40;;
75486;SDS011;64068;44.762;21.514;2022-10-16T15:24:14;12.90;;;8.07;;
75486;SDS011;64068;44.762;21.514;2022-10-16T15:26:41;11.88;;;6.97;;
75486;SDS011;64068;44.762;21.514;2022-10-16T15:29:07;15.32;;;6.50;;
75486;SDS011;64068;44.762;21.514;2022-10-16T15:31:33;9.60;;;6.13;;
75486;SDS011;64068;44.762;21.514;2022-10-16T15:34:00;9.48;;;6.75;;
75486;SDS011;64068;44.762;21.514;2022-10-16T15:36:30;10.13;;;6.22;;
75486;SDS011;64068;44.762;21.514;2022-10-16T15:38:58;11.38;;;7.55;;
75486;SDS011;64068;44.762;21.514;2022-10-16T15:41:25;15.45;;;7.25;;
75486;SDS011;64068;44.762;21.514;2022-10-16T15:43:51;18.90;;;8.93;;
75486;SDS011;64068;44.762;21.514;2022-10-16T15:46:18;16.80;;;7.63;;
75486;SDS011;64068;44.762;21.514;2022-10-16T15:48:45;31.55;;;14.88;;
75486;SDS011;64068;44.762;21.514;2022-10-16T15:51:12;103.72;;;61.80;;
75486;SDS011;64068;44.762;21.514;2022-10-16T15:53:38;207.52;;;110.32;;
75486;SDS011;64068;44.762;21.514;2022-10-16T15:56:06;371.42;;;184.30;;
75486;SDS011;64068;44.762;21.514;2022-10-16T15:58:32;288.80;;;137.20;;
75486;SDS011;64068;44.762;21.514;2022-10-16T16:00:59;131.73;;;63.20;;
75486;SDS011;64068;44.762;21.514;2022-10-16T16:03:26;147.15;;;71.15;;
75486;SDS011;64068;44.762;21.514;2022-10-16T16:05:52;112.15;;;55.20;;
75486;SDS011;64068;44.762;21.514;2022-10-16T16:08:19;210.68;;;104.28;;
75486;SDS011;64068;44.762;21.514;2022-10-16T16:10:45;194.65;;;95.47;;
75486;SDS011;64068;44.762;21.514;2022-10-16T16:13:12;107.55;;;55.95;;